sensor_id;sensor_type;location;lat;lon;timestamp;pressure;altitude;pressure_sealevel;temperature;humidity
68616;BME280;57261;47.504;19.084;2022-12-18T09:55:09;102497.97;;;8.72;74.87
68616;BME280;57261;47.504;19.084;2022-12-18T09:58:20;102466.13;;;9.65;70.54
68616;BME280;57261;47.504;19.084;2022-12-18T10:01:27;102483.22;;;10.18;68.32
68616;BME280;57261;47.504;19.084;2022-12-18T10:04:30;102475.03;;;10.49;67.28
68616;BME280;57261;47.504;19.084;2022-12-18T10:14:42;102467.41;;;10.59;66.66
68616;BME280;57261;47.504;19.084;2022-12-18T10:17:59;102473.66;;;10.81;65.97
68616;BME280;57261;47.504;19.084;2022-12-18T10:21:26;102470.38;;;11.00;65.93
68616;BME280;57261;47.504;19.084;2022-12-18T10:27:39;102466.13;;;11.02;65.92
68616;BME280;57261;47.504;19.084;2022-12-18T10:30:41;102458.31;;;10.96;66.11
68616;BME280;57261;47.504;19.084;2022-12-18T10:33:42;102459.22;;;10.99;65.60
68616;BME280;57261;47.504;19.084;2022-12-18T10:36:43;102461.84;;;11.06;65.06
68616;BME280;57261;47.504;19.084;2022-12-18T10:39:44;102460.16;;;11.08;65.48
68616;BME280;57261;47.504;19.084;2022-12-18T10:42:44;102455.88;;;11.10;65.08
68616;BME280;57261;47.504;19.084;2022-12-18T10:46:18;102458.38;;;11.02;65.27
68616;BME280;57261;47.504;19.084;2022-12-18T10:49:29;102458.44;;;11.09;65.03
68616;BME280;57261;47.504;19.084;2022-12-18T10:52:30;102464.53;;;11.15;64.62
68616;BME280;57261;47.504;19.084;2022-12-18T10:55:36;102458.56;;;11.24;64.53
68616;BME280;57261;47.504;19.084;2022-12-18T10:58:38;102452.56;;;11.25;64.66
68616;BME280;57261;47.504;19.084;2022-12-18T11:04:51;102420.63;;;11.12;64.45
68616;BME280;57261;47.504;19.084;2022-12-18T11:07:52;102438.81;;;11.27;64.39
68616;BME280;57261;47.504;19.084;2022-12-18T11:10:54;102443.13;;;11.31;64.56
68616;BME280;57261;47.504;19.084;2022-12-18T11:14:04;102438.84;;;11.33;64.19
68616;BME280;57261;47.504;19.084;2022-12-18T11:17:21;102438.03;;;11.37;64.29
68616;BME280;57261;47.504;19.084;2022-12-18T11:20:34;102445.78;;;11.40;63.41
68616;BME280;57261;47.504;19.084;2022-12-18T11:23:36;102433.75;;;11.41;63.50
68616;BME280;57261;47.504;19.084;2022-12-18T11:26:43;102444.13;;;11.48;63.62
68616;BME280;57261;47.504;19.084;2022-12-18T11:29:44;102439.03;;;11.53;63.70
68616;BME280;57261;47.504;19.084;2022-12-18T11:32:48;102444.19;;;11.53;64.01
68616;BME280;57261;47.504;19.084;2022-12-18T11:35:51;102432.16;;;11.52;63.35
68616;BME280;57261;47.504;19.084;2022-12-18T11:38:55;102425.19;;;11.46;63.48
68616;BME280;57261;47.504;19.084;2022-12-18T11:42:11;102432.19;;;11.58;62.94
68616;BME280;57261;47.504;19.084;2022-12-18T11:48:21;102433.06;;;11.61;62.54
68616;BME280;57261;47.504;19.084;2022-12-18T11:51:28;102429.63;;;11.61;62.95
68616;BME280;57261;47.504;19.084;2022-12-18T11:54:30;102424.47;;;11.64;63.01
68616;BME280;57261;47.504;19.084;2022-12-18T11:57:39;102420.19;;;11.67;62.95
68616;BME280;57261;47.504;19.084;2022-12-18T12:00:53;102421.03;;;11.66;63.01
68616;BME280;57261;47.504;19.084;2022-12-18T12:17:26;102416.81;;;11.77;62.75
68616;BME280;57261;47.504;19.084;2022-12-18T12:23:50;102409.91;;;11.77;62.33
68616;BME280;57261;47.504;19.084;2022-12-18T12:26:57;102414.22;;;11.77;62.24
68616;BME280;57261;47.504;19.084;2022-12-18T12:30:07;102420.28;;;11.80;61.96
68616;BME280;57261;47.504;19.084;2022-12-18T12:36:41;102412.53;;;11.82;62.19
68616;BME280;57261;47.504;19.084;2022-12-18T12:39:47;102409.88;;;11.75;61.90
68616;BME280;57261;47.504;19.084;2022-12-18T12:42:54;102396.13;;;11.73;62.28
68616;BME280;57261;47.504;19.084;2022-12-18T12:46:16;102410.75;;;11.78;62.24
68616;BME280;57261;47.504;19.084;2022-12-18T12:49:20;102428.03;;;11.83;62.45
68616;BME280;57261;47.504;19.084;2022-12-18T12:52:37;102429.75;;;11.83;62.30
68616;BME280;57261;47.504;19.084;2022-12-18T12:55:40;102443.53;;;11.83;62.43
68616;BME280;57261;47.504;19.084;2022-12-18T13:02:24;102442.66;;;11.84;62.40
68616;BME280;57261;47.504;19.084;2022-12-18T13:08:56;102438.38;;;11.88;62.46
68616;BME280;57261;47.504;19.084;2022-12-18T13:12:03;102428.84;;;11.74;62.45
68616;BME280;57261;47.504;19.084;2022-12-18T13:15:37;102447.84;;;11.86;62.20
68616;BME280;57261;47.504;19.084;2022-12-18T13:18:48;102455.59;;;11.86;62.28
68616;BME280;57261;47.504;19.084;2022-12-18T13:21:54;102443.53;;;11.85;62.29
68616;BME280;57261;47.504;19.084;2022-12-18T13:24:55;102456.47;;;11.89;61.87
68616;BME280;57261;47.504;19.084;2022-12-18T13:31:01;102463.38;;;11.90;61.94
68616;BME280;57261;47.504;19.084;2022-12-18T13:34:22;102454.72;;;11.88;62.11
68616;BME280;57261;47.504;19.084;2022-12-18T13:43:55;102471.13;;;11.90;62.23
68616;BME280;57261;47.504;19.084;2022-12-18T13:47:00;102472.81;;;11.88;62.34
68616;BME280;57261;47.504;19.084;2022-12-18T13:50:10;102479.75;;;11.92;62.25
68616;BME280;57261;47.504;19.084;2022-12-18T13:53:24;102471.13;;;11.92;62.24
68616;BME280;57261;47.504;19.084;2022-12-18T13:56:30;102484.06;;;11.93;62.14
68616;BME280;57261;47.504;19.084;2022-12-18T13:59:39;102491.81;;;11.95;62.07
68616;BME280;57261;47.504;19.084;2022-12-18T14:02:44;102484.91;;;11.95;62.13
68616;BME280;57261;47.504;19.084;2022-12-18T14:05:45;102441.75;;;11.74;62.15
68616;BME280;57261;47.504;19.084;2022-12-18T14:08:47;102485.81;;;11.94;62.11
68616;BME280;57261;47.504;19.084;2022-12-18T14:11:49;102481.47;;;11.90;62.32
68616;BME280;57261;47.504;19.084;2022-12-18T14:14:51;102480.59;;;11.90;62.35
68616;BME280;57261;47.504;19.084;2022-12-18T14:17:55;102487.50;;;11.92;62.53
68616;BME280;57261;47.504;19.084;2022-12-18T14:21:00;102463.31;;;11.77;62.27
68616;BME280;57261;47.504;19.084;2022-12-18T14:27:20;102485.81;;;11.96;62.47
68616;BME280;57261;47.504;19.084;2022-12-18T14:30:35;102490.94;;;11.93;62.39
68616;BME280;57261;47.504;19.084;2022-12-18T14:33:37;102493.50;;;11.88;62.37
68616;BME280;57261;47.504;19.084;2022-12-18T14:36:38;102477.09;;;11.83;62.63
68616;BME280;57261;47.504;19.084;2022-12-18T14:39:40;102502.13;;;11.90;62.44
68616;BME280;57261;47.504;19.084;2022-12-18T14:42:41;102507.31;;;11.93;62.55
68616;BME280;57261;47.504;19.084;2022-12-18T14:45:43;102511.56;;;11.87;62.27
68616;BME280;57261;47.504;19.084;2022-12-18T14:48:47;102510.72;;;11.88;62.85
68616;BME280;57261;47.504;19.084;2022-12-18T14:51:53;102520.22;;;11.89;62.69
68616;BME280;57261;47.504;19.084;2022-12-18T14:54:55;102521.91;;;11.87;62.49
68616;BME280;57261;47.504;19.084;2022-12-18T14:57:56;102533.13;;;11.92;62.19
68616;BME280;57261;47.504;19.084;2022-12-18T15:00:57;102524.56;;;11.96;62.26
68616;BME280;57261;47.504;19.084;2022-12-18T15:03:59;102527.00;;;11.78;60.21
68616;BME280;57261;47.504;19.084;2022-12-18T15:10:27;102527.84;;;11.74;62.77
68616;BME280;57261;47.504;19.084;2022-12-18T15:13:30;102533.06;;;11.77;62.99
68616;BME280;57261;47.504;19.084;2022-12-18T15:16:31;102547.75;;;11.88;62.79
68616;BME280;57261;47.504;19.084;2022-12-18T15:19:38;102550.34;;;11.87;62.76
68616;BME280;57261;47.504;19.084;2022-12-18T15:22:39;102556.34;;;11.86;62.80
68616;BME280;57261;47.504;19.084;2022-12-18T15:25:40;102555.50;;;11.87;62.91
68616;BME280;57261;47.504;19.084;2022-12-18T15:28:54;102545.13;;;11.81;63.29
68616;BME280;57261;47.504;19.084;2022-12-18T15:32:05;102570.13;;;11.85;63.08
68616;BME280;57261;47.504;19.084;2022-12-18T15:35:21;102572.69;;;11.85;62.90
68616;BME280;57261;47.504;19.084;2022-12-18T15:38:22;102571.88;;;11.87;63.01
68616;BME280;57261;47.504;19.084;2022-12-18T15:41:23;102576.16;;;11.84;63.05
68616;BME280;57261;47.504;19.084;2022-12-18T15:44:24;102581.34;;;11.85;63.26
68616;BME280;57261;47.504;19.084;2022-12-18T15:47:25;102587.31;;;11.81;63.05
68616;BME280;57261;47.504;19.084;2022-12-18T15:50:26;102589.88;;;11.78;63.26
68616;BME280;57261;47.504;19.084;2022-12-18T15:53:33;102602.81;;;11.77;62.83
68616;BME280;57261;47.504;19.084;2022-12-18T15:56:33;102613.88;;;11.67;63.61
68616;BME280;57261;47.504;19.084;2022-12-18T15:59:54;102607.91;;;11.73;62.94
68616;BME280;57261;47.504;19.084;2022-12-18T16:02:58;102611.41;;;11.76;63.08
68616;BME280;57261;47.504;19.084;2022-12-18T16:05:59;102594.06;;;11.66;62.64
68616;BME280;57261;47.504;19.084;2022-12-18T16:09:02;102590.63;;;11.66;63.34
68616;BME280;57261;47.504;19.084;2022-12-18T16:12:02;102607.09;;;11.77;63.14
68616;BME280;57261;47.504;19.084;2022-12-18T16:15:05;102613.13;;;11.78;63.17
68616;BME280;57261;47.504;19.084;2022-12-18T16:18:07;102616.53;;;11.75;63.16
68616;BME280;57261;47.504;19.084;2022-12-18T16:21:07;102612.19;;;11.72;63.34
68616;BME280;57261;47.504;19.084;2022-12-18T16:24:20;102633.75;;;11.76;63.23
68616;BME280;57261;47.504;19.084;2022-12-18T16:27:22;102638.88;;;11.67;63.55
68616;BME280;57261;47.504;19.084;2022-12-18T16:30:26;102630.28;;;11.69;63.46
68616;BME280;57261;47.504;19.084;2022-12-18T16:33:27;102638.03;;;11.69;63.51
68616;BME280;57261;47.504;19.084;2022-12-18T16:36:28;102633.75;;;11.73;63.42
68616;BME280;57261;47.504;19.084;2022-12-18T16:39:29;102637.19;;;11.72;63.69
68616;BME280;57261;47.504;19.084;2022-12-18T16:42:30;102638.03;;;11.68;63.45
68616;BME280;57261;47.504;19.084;2022-12-18T16:45:33;102644.03;;;11.68;63.57
68616;BME280;57261;47.504;19.084;2022-12-18T16:48:33;102634.44;;;11.57;63.73
68616;BME280;57261;47.504;19.084;2022-12-18T16:51:34;102650.94;;;11.71;63.59
68616;BME280;57261;47.504;19.084;2022-12-18T16:54:34;102663.88;;;11.72;63.60
68616;BME280;57261;47.504;19.084;2022-12-18T16:57:35;102658.69;;;11.72;63.44
68616;BME280;57261;47.504;19.084;2022-12-18T17:00:37;102660.44;;;11.73;63.70
68616;BME280;57261;47.504;19.084;2022-12-18T17:03:38;102656.06;;;11.63;63.89
68616;BME280;57261;47.504;19.084;2022-12-18T17:06:41;102646.56;;;11.65;63.87
68616;BME280;57261;47.504;19.084;2022-12-18T17:09:42;102607.63;;;11.44;63.77
68616;BME280;57261;47.504;19.084;2022-12-18T17:12:42;102634.53;;;11.64;63.72
68616;BME280;57261;47.504;19.084;2022-12-18T17:15:42;102644.88;;;11.66;63.57
68616;BME280;57261;47.504;19.084;2022-12-18T17:18:43;102637.97;;;11.63;63.72
68616;BME280;57261;47.504;19.084;2022-12-18T17:21:45;102624.97;;;11.54;63.23
68616;BME280;57261;47.504;19.084;2022-12-18T17:24:46;102633.66;;;11.65;63.33
68616;BME280;57261;47.504;19.084;2022-12-18T17:27:49;102638.81;;;11.64;63.50
68616;BME280;57261;47.504;19.084;2022-12-18T17:30:53;102640.50;;;11.62;63.90
68616;BME280;57261;47.504;19.084;2022-12-18T17:33:54;102645.69;;;11.60;63.84
68616;BME280;57261;47.504;19.084;2022-12-18T17:36:54;102640.50;;;11.62;64.16
68616;BME280;57261;47.504;19.084;2022-12-18T17:39:55;102646.56;;;11.62;63.79
68616;BME280;57261;47.504;19.084;2022-12-18T17:42:55;102631.72;;;11.48;64.02
68616;BME280;57261;47.504;19.084;2022-12-18T17:46:05;102647.25;;;11.49;64.50
68616;BME280;57261;47.504;19.084;2022-12-18T17:49:06;102662.81;;;11.52;64.36
68616;BME280;57261;47.504;19.084;2022-12-18T17:52:06;102665.44;;;11.54;64.07
68616;BME280;57261;47.504;19.084;2022-12-18T17:55:08;102654.19;;;11.52;64.08
68616;BME280;57261;47.504;19.084;2022-12-18T17:58:09;102656.78;;;11.53;64.07
68616;BME280;57261;47.504;19.084;2022-12-18T18:01:13;102626.50;;;11.39;64.15
68616;BME280;57261;47.504;19.084;2022-12-18T18:04:15;102652.50;;;11.54;64.08
68616;BME280;57261;47.504;19.084;2022-12-18T18:07:16;102645.53;;;11.50;64.14
68616;BME280;57261;47.504;19.084;2022-12-18T18:10:16;102642.81;;;11.36;64.54
68616;BME280;57261;47.504;19.084;2022-12-18T18:13:24;102655.69;;;11.32;64.99
68616;BME280;57261;47.504;19.084;2022-12-18T18:16:46;102658.38;;;11.42;64.27
68616;BME280;57261;47.504;19.084;2022-12-18T18:19:47;102666.13;;;11.44;64.13
68616;BME280;57261;47.504;19.084;2022-12-18T18:22:49;102653.50;;;10.94;62.56
68616;BME280;57261;47.504;19.084;2022-12-18T18:25:49;102665.56;;;10.98;65.20
68616;BME280;57261;47.504;19.084;2022-12-18T18:28:52;102656.44;;;10.57;58.99
68616;BME280;57261;47.504;19.084;2022-12-18T18:31:58;102650.09;;;10.96;65.55
68616;BME280;57261;47.504;19.084;2022-12-18T18:35:00;102642.94;;;10.76;64.68
68616;BME280;57261;47.504;19.084;2022-12-18T18:38:01;102644.63;;;10.74;65.62
68616;BME280;57261;47.504;19.084;2022-12-18T18:41:04;102676.09;;;11.12;64.63
68616;BME280;57261;47.504;19.084;2022-12-18T18:44:05;102671.75;;;11.11;63.78
68616;BME280;57261;47.504;19.084;2022-12-18T18:47:06;102665.88;;;10.58;63.75
68616;BME280;57261;47.504;19.084;2022-12-18T18:50:06;102685.34;;;10.96;65.20
68616;BME280;57261;47.504;19.084;2022-12-18T18:53:07;102675.09;;;11.03;65.09
68616;BME280;57261;47.504;19.084;2022-12-18T18:56:09;102682.09;;;11.11;61.54
68616;BME280;57261;47.504;19.084;2022-12-18T18:59:10;102698.34;;;11.03;64.86
68616;BME280;57261;47.504;19.084;2022-12-18T19:02:12;102696.78;;;11.14;65.25
68616;BME280;57261;47.504;19.084;2022-12-18T19:05:13;102690.78;;;11.19;64.59
68616;BME280;57261;47.504;19.084;2022-12-18T19:08:13;102694.28;;;11.24;64.79
68616;BME280;57261;47.504;19.084;2022-12-18T19:11:14;102697.44;;;11.01;63.55
68616;BME280;57261;47.504;19.084;2022-12-18T19:14:48;102705.34;;;11.13;65.42
68616;BME280;57261;47.504;19.084;2022-12-18T19:17:49;102701.88;;;11.09;64.54
68616;BME280;57261;47.504;19.084;2022-12-18T19:21:00;102708.88;;;11.19;65.46
68616;BME280;57261;47.504;19.084;2022-12-18T19:24:01;102681.88;;;10.95;64.79
68616;BME280;57261;47.504;19.084;2022-12-18T19:27:01;102721.63;;;11.09;64.94
68616;BME280;57261;47.504;19.084;2022-12-18T19:30:02;102719.03;;;11.07;65.23
68616;BME280;57261;47.504;19.084;2022-12-18T19:33:03;102728.47;;;11.05;65.64
68616;BME280;57261;47.504;19.084;2022-12-18T19:36:20;102731.88;;;11.04;65.59
68616;BME280;57261;47.504;19.084;2022-12-18T19:39:21;102736.81;;;10.87;61.72
68616;BME280;57261;47.504;19.084;2022-12-18T19:42:21;102720.66;;;11.01;65.33
68616;BME280;57261;47.504;19.084;2022-12-18T19:45:22;102732.53;;;10.87;65.35
68616;BME280;57261;47.504;19.084;2022-12-18T19:48:24;102739.53;;;10.97;65.78
68616;BME280;57261;47.504;19.084;2022-12-18T19:51:26;102745.53;;;10.96;65.48
68616;BME280;57261;47.504;19.084;2022-12-18T19:54:27;102742.03;;;10.90;61.29
68616;BME280;57261;47.504;19.084;2022-12-18T19:57:27;102755.94;;;11.01;65.36
68616;BME280;57261;47.504;19.084;2022-12-18T20:00:28;102749.75;;;10.90;64.83
68616;BME280;57261;47.504;19.084;2022-12-18T20:03:29;102751.59;;;10.98;65.95
68616;BME280;57261;47.504;19.084;2022-12-18T20:06:33;102754.09;;;10.94;66.09
68616;BME280;57261;47.504;19.084;2022-12-18T20:09:35;102754.94;;;10.91;66.65
68616;BME280;57261;47.504;19.084;2022-12-18T20:12:36;102758.97;;;10.74;65.43
68616;BME280;57261;47.504;19.084;2022-12-18T20:15:37;102772.13;;;10.91;66.14
68616;BME280;57261;47.504;19.084;2022-12-18T20:18:37;102766.09;;;10.92;64.91
68616;BME280;57261;47.504;19.084;2022-12-18T20:21:38;102788.47;;;10.90;65.79
68616;BME280;57261;47.504;19.084;2022-12-18T20:24:39;102766.84;;;10.85;60.01
68616;BME280;57261;47.504;19.084;2022-12-18T20:27:39;102772.13;;;10.91;65.92
68616;BME280;57261;47.504;19.084;2022-12-18T20:30:39;102777.13;;;10.80;64.92
68616;BME280;57261;47.504;19.084;2022-12-18T20:33:40;102774.72;;;10.91;66.12
68616;BME280;57261;47.504;19.084;2022-12-18T20:36:41;102754.78;;;10.82;65.84
68616;BME280;57261;47.504;19.084;2022-12-18T20:39:44;102779.06;;;10.95;66.01
68616;BME280;57261;47.504;19.084;2022-12-18T20:42:45;102787.63;;;10.91;65.34
68616;BME280;57261;47.504;19.084;2022-12-18T20:45:46;102784.13;;;10.89;65.82
68616;BME280;57261;47.504;19.084;2022-12-18T20:48:47;102785.81;;;10.87;65.99
68616;BME280;57261;47.504;19.084;2022-12-18T20:51:49;102789.97;;;10.77;64.25
68616;BME280;57261;47.504;19.084;2022-12-18T20:54:50;102797.59;;;10.70;63.99
68616;BME280;57261;47.504;19.084;2022-12-18T20:57:50;102783.72;;;10.62;62.12
68616;BME280;57261;47.504;19.084;2022-12-18T21:01:09;102795.97;;;10.78;65.75
68616;BME280;57261;47.504;19.084;2022-12-18T21:04:11;102779.47;;;10.64;65.84
68616;BME280;57261;47.504;19.084;2022-12-18T21:07:11;102808.03;;;10.77;65.65
68616;BME280;57261;47.504;19.084;2022-12-18T21:10:12;102803.72;;;10.78;65.96
68616;BME280;57261;47.504;19.084;2022-12-18T21:13:12;102806.34;;;10.81;66.28
68616;BME280;57261;47.504;19.084;2022-12-18T21:16:13;102803.72;;;10.78;66.28
68616;BME280;57261;47.504;19.084;2022-12-18T21:19:16;102807.75;;;10.61;62.21
68616;BME280;57261;47.504;19.084;2022-12-18T21:22:17;102814.03;;;10.78;65.60
68616;BME280;57261;47.504;19.084;2022-12-18T21:25:19;102808.88;;;10.78;66.05
68616;BME280;57261;47.504;19.084;2022-12-18T21:28:19;102805.44;;;10.77;65.80
68616;BME280;57261;47.504;19.084;2022-12-18T21:31:20;102788.97;;;10.69;66.34
68616;BME280;57261;47.504;19.084;2022-12-18T21:34:27;102796.88;;;10.78;66.19
68616;BME280;57261;47.504;19.084;2022-12-18T21:37:28;102795.97;;;10.76;65.47
68616;BME280;57261;47.504;19.084;2022-12-18T21:40:28;102795.06;;;10.73;65.08
68616;BME280;57261;47.504;19.084;2022-12-18T21:43:28;102794.13;;;10.68;65.92
68616;BME280;57261;47.504;19.084;2022-12-18T21:46:48;102784.53;;;10.59;65.50
68616;BME280;57261;47.504;19.084;2022-12-18T21:49:52;102782.88;;;10.63;65.47
68616;BME280;57261;47.504;19.084;2022-12-18T21:52:53;102783.63;;;10.57;66.04
68616;BME280;57261;47.504;19.084;2022-12-18T21:55:57;102791.44;;;10.62;65.56
68616;BME280;57261;47.504;19.084;2022-12-18T21:59:00;102799.56;;;10.34;65.32
68616;BME280;57261;47.504;19.084;2022-12-18T22:02:03;102797.72;;;10.27;65.31
68616;BME280;57261;47.504;19.084;2022-12-18T22:05:04;102786.47;;;10.22;65.58
68616;BME280;57261;47.504;19.084;2022-12-18T22:08:05;102792.00;;;9.97;65.94
68616;BME280;57261;47.504;19.084;2022-12-18T22:11:05;102791.53;;;10.18;67.11
68616;BME280;57261;47.504;19.084;2022-12-18T22:14:06;102794.31;;;10.29;66.48
68616;BME280;57261;47.504;19.084;2022-12-18T22:17:07;102798.03;;;10.45;66.84
68616;BME280;57261;47.504;19.084;2022-12-18T22:20:09;102794.63;;;10.47;66.80
68616;BME280;57261;47.504;19.084;2022-12-18T22:23:10;102799.84;;;10.49;66.98
68616;BME280;57261;47.504;19.084;2022-12-18T22:26:12;102796.25;;;10.41;65.75
68616;BME280;57261;47.504;19.084;2022-12-18T22:29:16;102801.50;;;10.45;66.16
68616;BME280;57261;47.504;19.084;2022-12-18T22:32:35;102800.47;;;10.36;66.46
68616;BME280;57261;47.504;19.084;2022-12-18T22:35:36;102792.63;;;10.30;65.85
68616;BME280;57261;47.504;19.084;2022-12-18T22:38:37;102800.50;;;10.37;66.99
68616;BME280;57261;47.504;19.084;2022-12-18T22:41:37;102805.72;;;10.42;66.94
68616;BME280;57261;47.504;19.084;2022-12-18T22:44:39;102808.31;;;10.42;66.70
68616;BME280;57261;47.504;19.084;2022-12-18T22:47:39;102801.31;;;10.35;67.00
68616;BME280;57261;47.504;19.084;2022-12-18T22:50:40;102797.91;;;10.37;66.77
68616;BME280;57261;47.504;19.084;2022-12-18T22:53:41;102800.03;;;10.12;66.88
68616;BME280;57261;47.504;19.084;2022-12-18T22:56:42;102819.31;;;10.33;66.33
68616;BME280;57261;47.504;19.084;2022-12-18T22:59:44;102820.94;;;10.28;67.30
68616;BME280;57261;47.504;19.084;2022-12-18T23:02:45;102821.97;;;10.38;67.28
68616;BME280;57261;47.504;19.084;2022-12-18T23:05:45;102821.66;;;10.20;66.38
68616;BME280;57261;47.504;19.084;2022-12-18T23:08:47;102823.13;;;10.08;64.27
68616;BME280;57261;47.504;19.084;2022-12-18T23:11:48;102825.16;;;10.25;67.01
68616;BME280;57261;47.504;19.084;2022-12-18T23:14:48;102821.09;;;10.37;66.39
68616;BME280;57261;47.504;19.084;2022-12-18T23:17:49;102823.56;;;10.30;67.25
68616;BME280;57261;47.504;19.084;2022-12-18T23:20:49;102819.56;;;10.00;63.02
68616;BME280;57261;47.504;19.084;2022-12-18T23:23:51;102825.88;;;10.17;67.01
68616;BME280;57261;47.504;19.084;2022-12-18T23:26:51;102808.56;;;10.10;66.24
68616;BME280;57261;47.504;19.084;2022-12-18T23:29:51;102827.72;;;10.24;67.40
68616;BME280;57261;47.504;19.084;2022-12-18T23:32:53;102801.09;;;10.23;67.32
68616;BME280;57261;47.504;19.084;2022-12-18T23:36:01;102813.13;;;10.24;67.21
68616;BME280;57261;47.504;19.084;2022-12-18T23:39:01;102800.19;;;10.20;67.35
68616;BME280;57261;47.504;19.084;2022-12-18T23:42:02;102811.34;;;10.20;67.11
68616;BME280;57261;47.504;19.084;2022-12-18T23:45:03;102814.59;;;10.10;66.61
68616;BME280;57261;47.504;19.084;2022-12-18T23:48:03;102819.06;;;10.19;66.18
68616;BME280;57261;47.504;19.084;2022-12-18T23:51:07;102816.38;;;10.14;66.38
68616;BME280;57261;47.504;19.084;2022-12-18T23:54:08;102811.06;;;10.05;67.38
68616;BME280;57261;47.504;19.084;2022-12-18T23:57:09;102822.25;;;10.07;66.12
